sensor_id;sensor_type;location;lat;lon;timestamp;pressure;altitude;pressure_sealevel;temperature;humidity
45050;BME280;61798;48.048;-1.928;2023-03-14T00:02:11;98801.81;;;9.06;100.00
45050;BME280;61798;48.048;-1.928;2023-03-14T00:04:27;98807.50;;;9.09;100.00
45050;BME280;61798;48.048;-1.928;2023-03-14T00:06:36;98821.81;;;9.15;100.00
45050;BME280;61798;48.048;-1.928;2023-03-14T00:08:46;98820.41;;;9.13;100.00
45050;BME280;61798;48.048;-1.928;2023-03-14T00:10:53;98793.53;;;8.95;100.00
45050;BME280;61798;48.048;-1.928;2023-03-14T00:13:01;98819.22;;;9.08;100.00
45050;BME280;61798;48.048;-1.928;2023-03-14T00:15:11;98826.81;;;9.12;100.00
45050;BME280;61798;48.048;-1.928;2023-03-14T00:17:27;98832.94;;;9.12;100.00
45050;BME280;61798;48.048;-1.928;2023-03-14T00:19:36;98833.56;;;9.14;100.00
45050;BME280;61798;48.048;-1.928;2023-03-14T00:21:45;98837.50;;;9.12;100.00
45050;BME280;61798;48.048;-1.928;2023-03-14T00:23:55;98862.50;;;9.17;100.00
45050;BME280;61798;48.048;-1.928;2023-03-14T00:26:11;98857.13;;;9.17;100.00
45050;BME280;61798;48.048;-1.928;2023-03-14T00:28:21;98862.81;;;9.09;100.00
45050;BME280;61798;48.048;-1.928;2023-03-14T00:30:31;98858.75;;;9.06;100.00
45050;BME280;61798;48.048;-1.928;2023-03-14T00:32:41;98880.38;;;9.17;100.00
45050;BME280;61798;48.048;-1.928;2023-03-14T00:34:54;98890.38;;;9.22;100.00
45050;BME280;61798;48.048;-1.928;2023-03-14T00:37:02;98883.28;;;9.15;100.00
45050;BME280;61798;48.048;-1.928;2023-03-14T00:39:15;98873.50;;;9.09;100.00
45050;BME280;61798;48.048;-1.928;2023-03-14T00:41:34;98878.94;;;9.02;100.00
45050;BME280;61798;48.048;-1.928;2023-03-14T00:43:44;98898.88;;;9.18;100.00
45050;BME280;61798;48.048;-1.928;2023-03-14T00:46:08;98913.41;;;9.23;100.00
45050;BME280;61798;48.048;-1.928;2023-03-14T00:48:19;98929.00;;;9.26;100.00
45050;BME280;61798;48.048;-1.928;2023-03-14T00:50:31;98937.31;;;9.17;100.00
45050;BME280;61798;48.048;-1.928;2023-03-14T00:52:41;98945.50;;;9.04;100.00
45050;BME280;61798;48.048;-1.928;2023-03-14T00:55:03;98970.91;;;8.94;100.00
45050;BME280;61798;48.048;-1.928;2023-03-14T00:57:12;98950.94;;;8.78;100.00
45050;BME280;61798;48.048;-1.928;2023-03-14T00:59:20;98969.13;;;8.69;100.00
45050;BME280;61798;48.048;-1.928;2023-03-14T01:01:30;98994.94;;;8.75;100.00
45050;BME280;61798;48.048;-1.928;2023-03-14T01:03:42;98957.03;;;8.41;100.00
45050;BME280;61798;48.048;-1.928;2023-03-14T01:05:51;98985.47;;;8.54;100.00
45050;BME280;61798;48.048;-1.928;2023-03-14T01:08:06;99008.09;;;8.51;100.00
45050;BME280;61798;48.048;-1.928;2023-03-14T01:10:17;98980.22;;;8.21;100.00
45050;BME280;61798;48.048;-1.928;2023-03-14T01:12:29;99024.72;;;8.28;100.00
45050;BME280;61798;48.048;-1.928;2023-03-14T01:14:38;99016.16;;;8.19;100.00
45050;BME280;61798;48.048;-1.928;2023-03-14T01:16:47;99039.28;;;8.32;100.00
45050;BME280;61798;48.048;-1.928;2023-03-14T01:19:01;99047.31;;;8.25;100.00
45050;BME280;61798;48.048;-1.928;2023-03-14T01:21:21;99060.22;;;8.28;100.00
45050;BME280;61798;48.048;-1.928;2023-03-14T01:23:34;99057.03;;;8.12;100.00
45050;BME280;61798;48.048;-1.928;2023-03-14T01:25:44;99071.00;;;8.14;100.00
45050;BME280;61798;48.048;-1.928;2023-03-14T01:28:11;99070.06;;;8.02;100.00
45050;BME280;61798;48.048;-1.928;2023-03-14T01:30:26;99102.06;;;8.02;100.00
45050;BME280;61798;48.048;-1.928;2023-03-14T01:32:39;99113.31;;;8.11;100.00
45050;BME280;61798;48.048;-1.928;2023-03-14T01:34:48;99100.84;;;7.98;100.00
45050;BME280;61798;48.048;-1.928;2023-03-14T01:37:00;99117.28;;;7.95;100.00
45050;BME280;61798;48.048;-1.928;2023-03-14T01:39:13;99119.13;;;7.94;100.00
45050;BME280;61798;48.048;-1.928;2023-03-14T01:41:22;99159.31;;;8.06;100.00
45050;BME280;61798;48.048;-1.928;2023-03-14T01:43:29;99160.97;;;8.00;100.00
45050;BME280;61798;48.048;-1.928;2023-03-14T01:48:09;99165.50;;;7.93;100.00
45050;BME280;61798;48.048;-1.928;2023-03-14T01:50:15;99178.66;;;7.95;100.00
45050;BME280;61798;48.048;-1.928;2023-03-14T01:52:27;99146.13;;;7.72;100.00
45050;BME280;61798;48.048;-1.928;2023-03-14T01:54:37;99193.44;;;7.90;100.00
45050;BME280;61798;48.048;-1.928;2023-03-14T01:56:48;99193.88;;;7.87;100.00
45050;BME280;61798;48.048;-1.928;2023-03-14T01:58:55;99191.84;;;7.69;100.00
45050;BME280;61798;48.048;-1.928;2023-03-14T02:01:02;99202.91;;;7.72;100.00
45050;BME280;61798;48.048;-1.928;2023-03-14T02:03:20;99214.63;;;7.65;100.00
45050;BME280;61798;48.048;-1.928;2023-03-14T02:05:32;99229.22;;;7.62;100.00
45050;BME280;61798;48.048;-1.928;2023-03-14T02:07:58;99238.47;;;7.59;100.00
45050;BME280;61798;48.048;-1.928;2023-03-14T02:10:06;99245.03;;;7.50;100.00
45050;BME280;61798;48.048;-1.928;2023-03-14T02:12:15;99236.63;;;7.33;100.00
45050;BME280;61798;48.048;-1.928;2023-03-14T02:14:30;99217.59;;;7.15;100.00
45050;BME280;61798;48.048;-1.928;2023-03-14T02:16:36;99244.03;;;7.30;100.00
45050;BME280;61798;48.048;-1.928;2023-03-14T02:18:42;99223.94;;;7.14;100.00
45050;BME280;61798;48.048;-1.928;2023-03-14T02:21:00;99270.47;;;7.39;100.00
45050;BME280;61798;48.048;-1.928;2023-03-14T02:23:06;99273.13;;;7.32;100.00
45050;BME280;61798;48.048;-1.928;2023-03-14T02:27:40;99272.50;;;7.23;100.00
45050;BME280;61798;48.048;-1.928;2023-03-14T02:32:11;99279.47;;;7.45;100.00
45050;BME280;61798;48.048;-1.928;2023-03-14T02:34:17;99259.78;;;7.25;100.00
45050;BME280;61798;48.048;-1.928;2023-03-14T02:36:23;99253.06;;;7.16;100.00
45050;BME280;61798;48.048;-1.928;2023-03-14T02:38:45;99298.75;;;7.47;100.00
45050;BME280;61798;48.048;-1.928;2023-03-14T02:40:52;99275.19;;;7.23;100.00
45050;BME280;61798;48.048;-1.928;2023-03-14T02:42:58;99258.38;;;7.16;100.00
45050;BME280;61798;48.048;-1.928;2023-03-14T02:47:24;99301.22;;;7.35;100.00
45050;BME280;61798;48.048;-1.928;2023-03-14T02:49:33;99311.03;;;7.41;100.00
45050;BME280;61798;48.048;-1.928;2023-03-14T02:51:40;99323.97;;;7.30;100.00
45050;BME280;61798;48.048;-1.928;2023-03-14T02:53:47;99321.50;;;7.29;100.00
45050;BME280;61798;48.048;-1.928;2023-03-14T02:55:54;99306.13;;;7.17;100.00
45050;BME280;61798;48.048;-1.928;2023-03-14T02:58:00;99311.22;;;7.05;100.00
45050;BME280;61798;48.048;-1.928;2023-03-14T03:00:07;99340.97;;;7.16;100.00
45050;BME280;61798;48.048;-1.928;2023-03-14T03:02:14;99330.09;;;7.11;100.00
45050;BME280;61798;48.048;-1.928;2023-03-14T03:04:20;99354.06;;;7.17;100.00
45050;BME280;61798;48.048;-1.928;2023-03-14T03:06:26;99346.91;;;7.04;100.00
45050;BME280;61798;48.048;-1.928;2023-03-14T03:08:32;99337.00;;;6.84;100.00
45050;BME280;61798;48.048;-1.928;2023-03-14T03:10:38;99362.66;;;7.06;100.00
45050;BME280;61798;48.048;-1.928;2023-03-14T03:12:44;99329.41;;;6.81;100.00
45050;BME280;61798;48.048;-1.928;2023-03-14T03:14:50;99379.69;;;7.12;100.00
45050;BME280;61798;48.048;-1.928;2023-03-14T03:16:56;99353.19;;;6.83;100.00
45050;BME280;61798;48.048;-1.928;2023-03-14T03:19:02;99374.31;;;6.98;100.00
45050;BME280;61798;48.048;-1.928;2023-03-14T03:21:08;99401.00;;;7.12;100.00
45050;BME280;61798;48.048;-1.928;2023-03-14T03:23:15;99410.41;;;7.07;100.00
45050;BME280;61798;48.048;-1.928;2023-03-14T03:25:23;99372.22;;;6.80;100.00
45050;BME280;61798;48.048;-1.928;2023-03-14T03:27:33;99401.16;;;6.96;100.00
45050;BME280;61798;48.048;-1.928;2023-03-14T03:29:39;99390.06;;;6.93;100.00
45050;BME280;61798;48.048;-1.928;2023-03-14T03:31:45;99403.78;;;6.83;100.00
45050;BME280;61798;48.048;-1.928;2023-03-14T03:33:51;99425.94;;;6.97;100.00
45050;BME280;61798;48.048;-1.928;2023-03-14T03:35:58;99414.28;;;6.98;100.00
45050;BME280;61798;48.048;-1.928;2023-03-14T03:38:04;99436.22;;;7.00;100.00
45050;BME280;61798;48.048;-1.928;2023-03-14T03:40:12;99378.47;;;6.58;100.00
45050;BME280;61798;48.048;-1.928;2023-03-14T03:42:18;99381.16;;;6.65;100.00
45050;BME280;61798;48.048;-1.928;2023-03-14T03:44:24;99406.59;;;6.74;100.00
45050;BME280;61798;48.048;-1.928;2023-03-14T03:46:30;99438.78;;;6.80;100.00
45050;BME280;61798;48.048;-1.928;2023-03-14T03:48:36;99447.81;;;6.85;100.00
45050;BME280;61798;48.048;-1.928;2023-03-14T03:50:46;99420.06;;;6.59;100.00
45050;BME280;61798;48.048;-1.928;2023-03-14T03:52:52;99457.63;;;6.78;100.00
45050;BME280;61798;48.048;-1.928;2023-03-14T03:54:58;99465.41;;;6.80;100.00
45050;BME280;61798;48.048;-1.928;2023-03-14T03:57:04;99440.38;;;6.67;100.00
45050;BME280;61798;48.048;-1.928;2023-03-14T03:59:10;99459.47;;;6.77;100.00
45050;BME280;61798;48.048;-1.928;2023-03-14T04:01:16;99441.31;;;6.52;100.00
45050;BME280;61798;48.048;-1.928;2023-03-14T04:03:24;99472.91;;;6.62;100.00
45050;BME280;61798;48.048;-1.928;2023-03-14T04:05:30;99462.28;;;6.33;100.00
45050;BME280;61798;48.048;-1.928;2023-03-14T04:07:36;99478.66;;;6.37;100.00
45050;BME280;61798;48.048;-1.928;2023-03-14T04:09:42;99450.03;;;6.10;100.00
45050;BME280;61798;48.048;-1.928;2023-03-14T04:11:48;99481.09;;;6.32;100.00
45050;BME280;61798;48.048;-1.928;2023-03-14T04:13:55;99503.13;;;6.48;100.00
45050;BME280;61798;48.048;-1.928;2023-03-14T04:16:01;99527.59;;;6.36;100.00
45050;BME280;61798;48.048;-1.928;2023-03-14T04:18:07;99524.69;;;6.31;100.00
45050;BME280;61798;48.048;-1.928;2023-03-14T04:20:13;99512.28;;;6.16;100.00
45050;BME280;61798;48.048;-1.928;2023-03-14T04:22:19;99533.97;;;6.42;100.00
45050;BME280;61798;48.048;-1.928;2023-03-14T04:24:26;99543.97;;;6.33;100.00
45050;BME280;61798;48.048;-1.928;2023-03-14T04:26:32;99528.75;;;6.27;100.00
45050;BME280;61798;48.048;-1.928;2023-03-14T04:28:38;99565.47;;;6.38;100.00
45050;BME280;61798;48.048;-1.928;2023-03-14T04:30:44;99535.38;;;6.09;100.00
45050;BME280;61798;48.048;-1.928;2023-03-14T04:32:50;99573.59;;;6.30;100.00
45050;BME280;61798;48.048;-1.928;2023-03-14T04:34:56;99568.03;;;6.24;100.00
45050;BME280;61798;48.048;-1.928;2023-03-14T04:37:02;99551.16;;;5.95;100.00
45050;BME280;61798;48.048;-1.928;2023-03-14T04:39:08;99586.00;;;6.22;100.00
45050;BME280;61798;48.048;-1.928;2023-03-14T04:41:14;99541.19;;;5.82;100.00
45050;BME280;61798;48.048;-1.928;2023-03-14T04:43:22;99552.91;;;5.88;100.00
45050;BME280;61798;48.048;-1.928;2023-03-14T04:45:28;99599.72;;;6.04;100.00
45050;BME280;61798;48.048;-1.928;2023-03-14T04:47:34;99565.50;;;5.79;100.00
45050;BME280;61798;48.048;-1.928;2023-03-14T04:49:40;99589.25;;;5.80;100.00
45050;BME280;61798;48.048;-1.928;2023-03-14T04:51:46;99625.72;;;5.87;100.00
45050;BME280;61798;48.048;-1.928;2023-03-14T04:53:53;99624.16;;;5.92;100.00
45050;BME280;61798;48.048;-1.928;2023-03-14T04:55:59;99586.91;;;5.55;100.00
45050;BME280;61798;48.048;-1.928;2023-03-14T04:58:05;99620.88;;;5.75;100.00
45050;BME280;61798;48.048;-1.928;2023-03-14T05:00:12;99648.94;;;5.78;100.00
45050;BME280;61798;48.048;-1.928;2023-03-14T05:02:18;99609.28;;;5.46;100.00
45050;BME280;61798;48.048;-1.928;2023-03-14T05:04:25;99651.69;;;5.54;100.00
45050;BME280;61798;48.048;-1.928;2023-03-14T05:06:32;99630.34;;;5.63;100.00
45050;BME280;61798;48.048;-1.928;2023-03-14T05:08:37;99651.34;;;5.73;100.00
45050;BME280;61798;48.048;-1.928;2023-03-14T05:10:44;99629.16;;;5.65;100.00
45050;BME280;61798;48.048;-1.928;2023-03-14T05:12:49;99612.97;;;5.45;100.00
45050;BME280;61798;48.048;-1.928;2023-03-14T05:14:55;99673.44;;;5.73;100.00
45050;BME280;61798;48.048;-1.928;2023-03-14T05:17:01;99677.25;;;5.70;100.00
45050;BME280;61798;48.048;-1.928;2023-03-14T05:19:07;99668.84;;;5.52;100.00
45050;BME280;61798;48.048;-1.928;2023-03-14T05:21:14;99653.91;;;5.35;100.00
45050;BME280;61798;48.048;-1.928;2023-03-14T05:23:21;99676.91;;;5.58;100.00
45050;BME280;61798;48.048;-1.928;2023-03-14T05:25:27;99669.94;;;5.27;100.00
45050;BME280;61798;48.048;-1.928;2023-03-14T05:27:33;99675.44;;;5.41;100.00
45050;BME280;61798;48.048;-1.928;2023-03-14T05:29:39;99700.66;;;5.60;100.00
45050;BME280;61798;48.048;-1.928;2023-03-14T05:31:45;99719.72;;;5.48;100.00
45050;BME280;61798;48.048;-1.928;2023-03-14T05:33:51;99707.78;;;5.44;100.00
45050;BME280;61798;48.048;-1.928;2023-03-14T05:35:57;99703.66;;;5.42;100.00
45050;BME280;61798;48.048;-1.928;2023-03-14T05:38:03;99712.56;;;5.49;100.00
45050;BME280;61798;48.048;-1.928;2023-03-14T05:40:11;99695.66;;;5.26;100.00
45050;BME280;61798;48.048;-1.928;2023-03-14T05:42:17;99722.47;;;5.55;100.00
45050;BME280;61798;48.048;-1.928;2023-03-14T05:44:24;99721.34;;;5.34;100.00
45050;BME280;61798;48.048;-1.928;2023-03-14T05:46:30;99712.81;;;5.24;100.00
45050;BME280;61798;48.048;-1.928;2023-03-14T05:48:36;99715.38;;;5.32;100.00
45050;BME280;61798;48.048;-1.928;2023-03-14T05:50:42;99730.13;;;5.35;100.00
45050;BME280;61798;48.048;-1.928;2023-03-14T05:52:48;99699.50;;;5.08;100.00
45050;BME280;61798;48.048;-1.928;2023-03-14T05:54:54;99751.84;;;5.38;100.00
45050;BME280;61798;48.048;-1.928;2023-03-14T05:57:00;99729.53;;;5.09;100.00
45050;BME280;61798;48.048;-1.928;2023-03-14T05:59:06;99728.88;;;5.07;100.00
45050;BME280;61798;48.048;-1.928;2023-03-14T06:01:14;99770.88;;;5.27;100.00
45050;BME280;61798;48.048;-1.928;2023-03-14T06:03:21;99783.41;;;5.18;100.00
45050;BME280;61798;48.048;-1.928;2023-03-14T06:05:27;99767.41;;;5.26;100.00
45050;BME280;61798;48.048;-1.928;2023-03-14T06:07:33;99781.59;;;5.34;100.00
45050;BME280;61798;48.048;-1.928;2023-03-14T06:09:41;99764.34;;;5.14;100.00
45050;BME280;61798;48.048;-1.928;2023-03-14T06:11:47;99756.44;;;5.06;100.00
45050;BME280;61798;48.048;-1.928;2023-03-14T06:13:54;99785.44;;;5.16;100.00
45050;BME280;61798;48.048;-1.928;2023-03-14T06:16:00;99750.13;;;4.83;100.00
45050;BME280;61798;48.048;-1.928;2023-03-14T06:18:06;99788.03;;;5.01;100.00
45050;BME280;61798;48.048;-1.928;2023-03-14T06:20:13;99795.38;;;5.14;100.00
45050;BME280;61798;48.048;-1.928;2023-03-14T06:22:20;99779.66;;;5.12;100.00
45050;BME280;61798;48.048;-1.928;2023-03-14T06:24:27;99755.44;;;4.83;100.00
45050;BME280;61798;48.048;-1.928;2023-03-14T06:26:35;99786.94;;;5.10;100.00
45050;BME280;61798;48.048;-1.928;2023-03-14T06:28:41;99806.38;;;5.11;100.00
45050;BME280;61798;48.048;-1.928;2023-03-14T06:30:48;99771.16;;;4.93;100.00
45050;BME280;61798;48.048;-1.928;2023-03-14T06:32:54;99815.06;;;5.04;100.00
45050;BME280;61798;48.048;-1.928;2023-03-14T06:35:01;99802.88;;;5.10;100.00
45050;BME280;61798;48.048;-1.928;2023-03-14T06:37:07;99807.72;;;5.06;100.00
45050;BME280;61798;48.048;-1.928;2023-03-14T06:39:14;99827.19;;;4.99;100.00
45050;BME280;61798;48.048;-1.928;2023-03-14T06:41:20;99814.22;;;4.80;100.00
45050;BME280;61798;48.048;-1.928;2023-03-14T06:43:29;99839.13;;;5.03;100.00
45050;BME280;61798;48.048;-1.928;2023-03-14T06:45:36;99839.44;;;5.08;100.00
45050;BME280;61798;48.048;-1.928;2023-03-14T06:47:42;99821.00;;;4.83;100.00
45050;BME280;61798;48.048;-1.928;2023-03-14T06:49:50;99817.97;;;4.86;100.00
45050;BME280;61798;48.048;-1.928;2023-03-14T06:51:56;99800.16;;;4.71;100.00
45050;BME280;61798;48.048;-1.928;2023-03-14T06:54:03;99842.91;;;4.85;100.00
45050;BME280;61798;48.048;-1.928;2023-03-14T06:56:09;99867.47;;;5.11;100.00
45050;BME280;61798;48.048;-1.928;2023-03-14T06:58:16;99852.44;;;4.94;100.00
45050;BME280;61798;48.048;-1.928;2023-03-14T07:00:23;99875.94;;;5.06;100.00
45050;BME280;61798;48.048;-1.928;2023-03-14T07:02:30;99888.78;;;4.94;100.00
45050;BME280;61798;48.048;-1.928;2023-03-14T07:04:38;99897.59;;;4.94;100.00
45050;BME280;61798;48.048;-1.928;2023-03-14T07:06:44;99899.25;;;4.95;100.00
45050;BME280;61798;48.048;-1.928;2023-03-14T07:08:51;99897.75;;;5.01;100.00
45050;BME280;61798;48.048;-1.928;2023-03-14T07:10:57;99912.16;;;4.99;100.00
45050;BME280;61798;48.048;-1.928;2023-03-14T07:13:03;99881.25;;;4.74;100.00
45050;BME280;61798;48.048;-1.928;2023-03-14T07:15:10;99906.91;;;4.90;100.00
45050;BME280;61798;48.048;-1.928;2023-03-14T07:17:16;99943.00;;;5.08;100.00
45050;BME280;61798;48.048;-1.928;2023-03-14T07:19:22;99933.06;;;5.02;100.00
45050;BME280;61798;48.048;-1.928;2023-03-14T07:21:28;99938.38;;;5.02;100.00
45050;BME280;61798;48.048;-1.928;2023-03-14T07:23:34;99963.78;;;5.04;100.00
45050;BME280;61798;48.048;-1.928;2023-03-14T07:25:40;99951.63;;;5.10;100.00
45050;BME280;61798;48.048;-1.928;2023-03-14T07:27:47;99953.06;;;5.21;100.00
45050;BME280;61798;48.048;-1.928;2023-03-14T07:29:56;99931.78;;;4.97;100.00
45050;BME280;61798;48.048;-1.928;2023-03-14T07:32:02;99956.25;;;5.16;100.00
45050;BME280;61798;48.048;-1.928;2023-03-14T07:34:08;99964.81;;;5.27;100.00
45050;BME280;61798;48.048;-1.928;2023-03-14T07:36:15;99963.88;;;5.20;100.00
45050;BME280;61798;48.048;-1.928;2023-03-14T07:38:21;99953.88;;;5.22;100.00
45050;BME280;61798;48.048;-1.928;2023-03-14T07:40:28;99955.19;;;5.26;100.00
45050;BME280;61798;48.048;-1.928;2023-03-14T07:42:34;99958.19;;;5.23;100.00
45050;BME280;61798;48.048;-1.928;2023-03-14T07:44:40;99937.69;;;5.08;100.00
45050;BME280;61798;48.048;-1.928;2023-03-14T07:46:46;99958.88;;;5.25;100.00
45050;BME280;61798;48.048;-1.928;2023-03-14T07:48:52;99983.03;;;5.38;100.00
45050;BME280;61798;48.048;-1.928;2023-03-14T07:50:59;99983.97;;;5.46;100.00
45050;BME280;61798;48.048;-1.928;2023-03-14T07:53:05;99970.81;;;5.29;100.00
45050;BME280;61798;48.048;-1.928;2023-03-14T07:55:11;99997.94;;;5.48;100.00
45050;BME280;61798;48.048;-1.928;2023-03-14T07:57:19;99964.34;;;5.23;100.00
45050;BME280;61798;48.048;-1.928;2023-03-14T07:59:25;100015.66;;;5.56;100.00
45050;BME280;61798;48.048;-1.928;2023-03-14T08:01:31;100014.88;;;5.47;100.00
45050;BME280;61798;48.048;-1.928;2023-03-14T08:03:39;99985.41;;;5.33;100.00
45050;BME280;61798;48.048;-1.928;2023-03-14T08:05:49;100020.94;;;5.64;100.00
45050;BME280;61798;48.048;-1.928;2023-03-14T08:07:55;99950.75;;;5.18;100.00
45050;BME280;61798;48.048;-1.928;2023-03-14T08:10:03;100009.47;;;5.64;100.00
45050;BME280;61798;48.048;-1.928;2023-03-14T08:12:09;100023.69;;;5.71;100.00
45050;BME280;61798;48.048;-1.928;2023-03-14T08:14:15;100028.03;;;5.72;100.00
45050;BME280;61798;48.048;-1.928;2023-03-14T08:16:21;100050.72;;;5.83;100.00
45050;BME280;61798;48.048;-1.928;2023-03-14T08:18:28;100039.59;;;5.79;100.00
45050;BME280;61798;48.048;-1.928;2023-03-14T08:20:35;100064.78;;;5.92;100.00
45050;BME280;61798;48.048;-1.928;2023-03-14T08:22:42;100055.63;;;5.95;100.00
45050;BME280;61798;48.048;-1.928;2023-03-14T08:24:49;100055.53;;;6.11;100.00
45050;BME280;61798;48.048;-1.928;2023-03-14T08:26:55;100038.41;;;6.06;100.00
45050;BME280;61798;48.048;-1.928;2023-03-14T08:29:01;100043.06;;;6.12;100.00
45050;BME280;61798;48.048;-1.928;2023-03-14T08:31:08;100055.66;;;6.18;100.00
45050;BME280;61798;48.048;-1.928;2023-03-14T08:33:14;100055.75;;;6.25;100.00
45050;BME280;61798;48.048;-1.928;2023-03-14T08:35:20;100070.63;;;6.19;100.00
45050;BME280;61798;48.048;-1.928;2023-03-14T08:37:26;100082.09;;;6.20;100.00
45050;BME280;61798;48.048;-1.928;2023-03-14T08:39:32;100083.91;;;6.19;100.00
45050;BME280;61798;48.048;-1.928;2023-03-14T08:41:39;100102.19;;;6.22;100.00
45050;BME280;61798;48.048;-1.928;2023-03-14T08:43:49;100090.06;;;6.20;100.00
45050;BME280;61798;48.048;-1.928;2023-03-14T08:45:59;100110.88;;;6.16;100.00
45050;BME280;61798;48.048;-1.928;2023-03-14T08:48:06;100108.50;;;6.21;100.00
45050;BME280;61798;48.048;-1.928;2023-03-14T08:50:13;100113.66;;;6.23;100.00
45050;BME280;61798;48.048;-1.928;2023-03-14T08:52:19;100122.41;;;6.32;100.00
45050;BME280;61798;48.048;-1.928;2023-03-14T08:54:25;100113.31;;;6.26;100.00
45050;BME280;61798;48.048;-1.928;2023-03-14T08:56:31;100110.13;;;6.31;100.00
45050;BME280;61798;48.048;-1.928;2023-03-14T08:58:37;100109.75;;;6.34;100.00
45050;BME280;61798;48.048;-1.928;2023-03-14T09:00:44;100110.06;;;6.39;100.00
45050;BME280;61798;48.048;-1.928;2023-03-14T09:02:50;100128.78;;;6.46;100.00
45050;BME280;61798;48.048;-1.928;2023-03-14T09:04:56;100121.56;;;6.55;100.00
45050;BME280;61798;48.048;-1.928;2023-03-14T09:07:02;100135.91;;;6.69;100.00
45050;BME280;61798;48.048;-1.928;2023-03-14T09:09:08;100103.91;;;6.39;100.00
45050;BME280;61798;48.048;-1.928;2023-03-14T09:11:15;100148.53;;;6.75;100.00
45050;BME280;61798;48.048;-1.928;2023-03-14T09:13:21;100110.09;;;6.54;100.00
45050;BME280;61798;48.048;-1.928;2023-03-14T09:15:28;100136.31;;;6.81;100.00
45050;BME280;61798;48.048;-1.928;2023-03-14T09:17:34;100120.25;;;6.74;100.00
45050;BME280;61798;48.048;-1.928;2023-03-14T09:19:40;100104.63;;;6.71;100.00
45050;BME280;61798;48.048;-1.928;2023-03-14T09:21:46;100095.34;;;6.67;100.00
45050;BME280;61798;48.048;-1.928;2023-03-14T09:23:52;100147.66;;;6.98;100.00
45050;BME280;61798;48.048;-1.928;2023-03-14T09:25:59;100144.75;;;7.08;100.00
45050;BME280;61798;48.048;-1.928;2023-03-14T09:28:06;100135.72;;;6.94;100.00
45050;BME280;61798;48.048;-1.928;2023-03-14T09:30:12;100137.38;;;6.95;100.00
45050;BME280;61798;48.048;-1.928;2023-03-14T09:32:18;100102.72;;;6.80;100.00
45050;BME280;61798;48.048;-1.928;2023-03-14T09:34:25;100156.03;;;7.26;100.00
45050;BME280;61798;48.048;-1.928;2023-03-14T09:36:31;100150.16;;;7.15;100.00
45050;BME280;61798;48.048;-1.928;2023-03-14T09:38:39;100120.47;;;7.03;100.00
45050;BME280;61798;48.048;-1.928;2023-03-14T09:40:46;100152.09;;;7.22;100.00
45050;BME280;61798;48.048;-1.928;2023-03-14T09:42:53;100126.09;;;7.08;100.00
45050;BME280;61798;48.048;-1.928;2023-03-14T09:45:04;100167.28;;;7.51;100.00
45050;BME280;61798;48.048;-1.928;2023-03-14T09:47:15;100160.22;;;7.44;100.00
45050;BME280;61798;48.048;-1.928;2023-03-14T09:49:30;100146.31;;;7.48;100.00
45050;BME280;61798;48.048;-1.928;2023-03-14T09:51:37;100187.59;;;7.83;100.00
45050;BME280;61798;48.048;-1.928;2023-03-14T09:53:48;100173.59;;;7.81;100.00
45050;BME280;61798;48.048;-1.928;2023-03-14T09:55:57;100168.16;;;7.89;100.00
45050;BME280;61798;48.048;-1.928;2023-03-14T09:58:10;100169.63;;;7.77;100.00
45050;BME280;61798;48.048;-1.928;2023-03-14T10:00:23;100178.28;;;7.79;100.00
45050;BME280;61798;48.048;-1.928;2023-03-14T10:02:35;100196.13;;;7.93;100.00
45050;BME280;61798;48.048;-1.928;2023-03-14T10:04:42;100171.69;;;7.59;100.00
45050;BME280;61798;48.048;-1.928;2023-03-14T10:06:49;100185.16;;;7.88;100.00
45050;BME280;61798;48.048;-1.928;2023-03-14T10:08:57;100199.81;;;7.77;100.00
45050;BME280;61798;48.048;-1.928;2023-03-14T10:11:03;100190.28;;;7.68;100.00
45050;BME280;61798;48.048;-1.928;2023-03-14T10:15:24;100206.19;;;8.13;100.00
45050;BME280;61798;48.048;-1.928;2023-03-14T10:17:39;100168.00;;;8.13;100.00
45050;BME280;61798;48.048;-1.928;2023-03-14T10:20:03;100207.03;;;8.51;100.00
45050;BME280;61798;48.048;-1.928;2023-03-14T10:22:14;100165.88;;;8.23;100.00
45050;BME280;61798;48.048;-1.928;2023-03-14T10:24:29;100191.84;;;8.14;100.00
45050;BME280;61798;48.048;-1.928;2023-03-14T10:26:36;100183.63;;;8.53;100.00
45050;BME280;61798;48.048;-1.928;2023-03-14T10:28:52;100210.34;;;8.97;100.00
45050;BME280;61798;48.048;-1.928;2023-03-14T10:30:59;100186.72;;;8.35;100.00
45050;BME280;61798;48.048;-1.928;2023-03-14T10:33:22;100214.28;;;8.57;100.00
45050;BME280;61798;48.048;-1.928;2023-03-14T10:35:34;100187.56;;;8.57;100.00
45050;BME280;61798;48.048;-1.928;2023-03-14T10:40:01;100211.38;;;8.74;100.00
45050;BME280;61798;48.048;-1.928;2023-03-14T10:42:33;100226.88;;;8.64;100.00
45050;BME280;61798;48.048;-1.928;2023-03-14T10:44:41;100213.44;;;8.35;100.00
45050;BME280;61798;48.048;-1.928;2023-03-14T10:46:56;100214.22;;;8.13;100.00
45050;BME280;61798;48.048;-1.928;2023-03-14T10:49:06;100210.53;;;8.14;100.00
45050;BME280;61798;48.048;-1.928;2023-03-14T10:51:25;100230.84;;;8.31;100.00
45050;BME280;61798;48.048;-1.928;2023-03-14T10:53:46;100231.56;;;8.40;100.00
45050;BME280;61798;48.048;-1.928;2023-03-14T10:55:52;100234.03;;;8.78;100.00
45050;BME280;61798;48.048;-1.928;2023-03-14T10:57:58;100219.13;;;8.69;100.00
45050;BME280;61798;48.048;-1.928;2023-03-14T11:00:06;100220.53;;;8.65;100.00
45050;BME280;61798;48.048;-1.928;2023-03-14T11:07:31;100218.38;;;8.75;100.00
45050;BME280;61798;48.048;-1.928;2023-03-14T11:10:14;100228.78;;;8.92;100.00
45050;BME280;61798;48.048;-1.928;2023-03-14T11:12:31;100231.19;;;9.09;100.00
45050;BME280;61798;48.048;-1.928;2023-03-14T11:14:46;100202.72;;;9.23;100.00
45050;BME280;61798;48.048;-1.928;2023-03-14T11:22:21;100199.44;;;9.28;100.00
45050;BME280;61798;48.048;-1.928;2023-03-14T11:29:27;100228.00;;;9.20;100.00
45050;BME280;61798;48.048;-1.928;2023-03-14T11:31:40;100170.88;;;9.28;100.00
45050;BME280;61798;48.048;-1.928;2023-03-14T11:34:01;100200.91;;;9.59;100.00
45050;BME280;61798;48.048;-1.928;2023-03-14T11:36:21;100211.75;;;9.93;100.00
45050;BME280;61798;48.048;-1.928;2023-03-14T11:38:46;100194.28;;;9.55;100.00
45050;BME280;61798;48.048;-1.928;2023-03-14T11:40:56;100202.41;;;9.76;100.00